createdAt,value
2023-05-12T00:02:03.433Z,99470.94
2023-05-12T00:05:05.793Z,99470.75
2023-05-12T00:08:08.043Z,99468.47
2023-05-12T00:11:10.113Z,99468.13
2023-05-12T00:14:11.896Z,99475.78
2023-05-12T00:17:13.971Z,99474.41
2023-05-12T00:20:15.930Z,99479.50
2023-05-12T00:23:18.102Z,99477.50
2023-05-12T00:26:20.033Z,99478.13
2023-05-12T00:29:22.799Z,99472.88
2023-05-12T00:32:25.754Z,99479.63
2023-05-12T00:35:27.996Z,99484.50
2023-05-12T00:38:29.923Z,99474.03
2023-05-12T00:41:31.808Z,99487.44
2023-05-12T00:44:33.897Z,99487.50
2023-05-12T00:47:45.083Z,99483.50
2023-05-12T00:50:47.451Z,99492.28
2023-05-12T00:53:50.671Z,99500.97
2023-05-12T00:56:53.031Z,99504.75
2023-05-12T00:59:56.584Z,99502.97
2023-05-12T01:02:58.934Z,99499.88
2023-05-12T01:06:16.634Z,99500.97
2023-05-12T01:09:19.220Z,99504.59
2023-05-12T01:12:21.570Z,99511.25
2023-05-12T01:15:23.636Z,99517.53
2023-05-12T01:18:28.625Z,99511.06
2023-05-12T01:21:31.825Z,99519.97
2023-05-12T01:24:38.845Z,99523.97
2023-05-12T01:27:42.099Z,99524.03
2023-05-12T01:30:45.044Z,99525.97
2023-05-12T01:33:48.492Z,99524.59
2023-05-12T01:36:50.507Z,99524.06
2023-05-12T01:39:53.980Z,99522.09
2023-05-12T01:42:56.551Z,99528.16
2023-05-12T01:45:59.264Z,99533.31
2023-05-12T01:49:01.549Z,99526.63
2023-05-12T01:52:04.008Z,99527.31
2023-05-12T01:55:07.307Z,99531.28
2023-05-12T01:58:15.017Z,99539.75
2023-05-12T02:01:16.919Z,99530.78
2023-05-12T02:04:18.870Z,99532.34
2023-05-12T02:07:22.367Z,99527.00
2023-05-12T02:10:24.336Z,99532.69
2023-05-12T02:13:26.415Z,99524.09
2023-05-12T02:16:28.324Z,99529.16
2023-05-12T02:19:30.305Z,99530.00
2023-05-12T02:22:33.846Z,99533.41
2023-05-12T02:25:36.125Z,99533.81
2023-05-12T02:28:38.108Z,99534.69
2023-05-12T02:31:40.360Z,99529.53
2023-05-12T02:34:52.198Z,99536.16
2023-05-12T02:37:54.075Z,99538.13
2023-05-12T02:40:56.023Z,99538.56
2023-05-12T02:43:58.607Z,99545.31
2023-05-12T02:47:00.690Z,99548.94
2023-05-12T02:50:02.626Z,99550.69
2023-05-12T02:53:05.943Z,99547.63
2023-05-12T02:56:08.081Z,99547.78
2023-05-12T02:59:09.998Z,99553.78
2023-05-12T03:02:12.071Z,99559.44
2023-05-12T03:05:14.543Z,99553.84
2023-05-12T03:08:16.755Z,99556.19
2023-05-12T03:11:18.678Z,99559.78
2023-05-12T03:14:20.628Z,99558.53
2023-05-12T03:17:22.883Z,99561.06
2023-05-12T03:20:25.663Z,99561.59
2023-05-12T03:23:27.574Z,99560.84
2023-05-12T03:26:30.645Z,99567.47
2023-05-12T03:29:32.581Z,99563.66
2023-05-12T03:32:34.549Z,99557.53
2023-05-12T03:35:36.471Z,99572.53
2023-05-12T03:38:38.652Z,99559.13
2023-05-12T03:41:41.098Z,99569.44
2023-05-12T03:44:43.879Z,99565.38
2023-05-12T03:47:46.186Z,99576.78
2023-05-12T03:50:48.167Z,99580.47
2023-05-12T03:53:50.516Z,99582.66
2023-05-12T03:56:53.642Z,99586.06
2023-05-12T03:59:55.596Z,99590.22
2023-05-12T04:02:57.767Z,99591.50
2023-05-12T04:06:03.453Z,99600.00
2023-05-12T04:09:05.349Z,99607.38
2023-05-12T04:12:07.410Z,99607.69
2023-05-12T04:15:09.616Z,99596.84
2023-05-12T04:18:11.663Z,99613.53
2023-05-12T04:21:14.608Z,99614.34
2023-05-12T04:24:16.620Z,99612.31
2023-05-12T04:27:18.617Z,99609.41
2023-05-12T04:30:21.060Z,99608.41
2023-05-12T04:33:24.608Z,99612.13
2023-05-12T04:36:27.054Z,99612.50
2023-05-12T04:39:29.619Z,99617.06
2023-05-12T04:42:32.399Z,99619.88
2023-05-12T04:45:34.703Z,99612.13
2023-05-12T04:48:41.925Z,99606.31
2023-05-12T04:51:44.628Z,99613.03
2023-05-12T04:54:46.773Z,99612.91
2023-05-12T04:57:48.755Z,99610.63
2023-05-12T05:00:50.808Z,99623.56
2023-05-12T05:03:52.957Z,99619.44
2023-05-12T05:06:58.455Z,99625.34
2023-05-12T05:13:18.346Z,99619.88
2023-05-12T05:16:20.416Z,99622.47
2023-05-12T05:19:35.250Z,99621.94
2023-05-12T05:22:48.622Z,99620.25
2023-05-12T05:25:51.602Z,99628.84
2023-05-12T05:28:55.237Z,99633.19
2023-05-12T05:31:58.597Z,99628.13
2023-05-12T05:35:00.595Z,99626.97
2023-05-12T05:38:02.958Z,99622.84
2023-05-12T05:41:06.816Z,99621.38
2023-05-12T05:44:09.183Z,99623.78
2023-05-12T05:47:11.261Z,99632.47
2023-05-12T05:50:13.801Z,99635.59
2023-05-12T05:53:20.509Z,99637.22
2023-05-12T05:56:23.133Z,99641.88
2023-05-12T05:59:25.480Z,99645.91
2023-05-12T06:02:28.129Z,99638.66
2023-05-12T06:05:30.132Z,99643.75
2023-05-12T06:08:32.099Z,99648.25
2023-05-12T06:11:34.012Z,99652.56
2023-05-12T06:14:35.851Z,99648.03
2023-05-12T06:17:38.397Z,99656.69
2023-05-12T06:20:41.131Z,99654.81
2023-05-12T06:23:43.077Z,99646.81
2023-05-12T06:26:44.909Z,99653.84
2023-05-12T06:29:46.842Z,99656.25
2023-05-12T06:32:48.817Z,99665.56
2023-05-12T06:35:50.802Z,99656.38
2023-05-12T06:38:53.967Z,99648.03
2023-05-12T06:41:55.857Z,99651.94
2023-05-12T06:44:57.785Z,99643.50
2023-05-12T06:48:00.047Z,99645.63
2023-05-12T06:51:02.688Z,99651.84
2023-05-12T06:54:04.683Z,99631.34
2023-05-12T06:57:06.570Z,99632.47
2023-05-12T07:00:09.740Z,99641.44
2023-05-12T07:03:11.729Z,99641.69
2023-05-12T07:06:14.048Z,99631.63
2023-05-12T07:09:18.761Z,99633.53
2023-05-12T07:12:52.369Z,99638.94
2023-05-12T07:15:54.316Z,99641.47
2023-05-12T07:18:56.460Z,99638.78
2023-05-12T07:21:58.836Z,99631.22
2023-05-12T07:25:00.842Z,99631.22
2023-05-12T07:28:03.064Z,99634.81
2023-05-12T07:31:07.333Z,99628.88
2023-05-12T07:34:09.333Z,99631.22
2023-05-12T07:37:11.197Z,99629.75
2023-05-12T07:40:13.225Z,99622.41
2023-05-12T07:43:15.085Z,99622.38
2023-05-12T07:46:16.945Z,99631.81
2023-05-12T07:49:18.802Z,99624.31
2023-05-12T07:52:20.748Z,99628.88
2023-05-12T07:55:23.236Z,99623.69
2023-05-12T07:58:25.357Z,99619.69
2023-05-12T08:01:27.494Z,99633.19
2023-05-12T08:04:29.522Z,99632.94
2023-05-12T08:07:32.023Z,99634.63
2023-05-12T08:10:33.957Z,99644.72
2023-05-12T08:13:38.868Z,99630.91
2023-05-12T08:16:41.085Z,99626.84
2023-05-12T08:19:43.061Z,99635.34
2023-05-12T08:22:44.927Z,99637.31
2023-05-12T08:25:48.540Z,99639.88
2023-05-12T08:28:50.441Z,99633.72
2023-05-12T08:31:52.375Z,99629.06
2023-05-12T08:34:54.686Z,99644.84
2023-05-12T08:37:57.540Z,99641.66
2023-05-12T08:41:13.001Z,99642.78
2023-05-12T08:44:15.896Z,99647.03
2023-05-12T08:47:20.418Z,99646.06
2023-05-12T08:50:23.392Z,99637.47
2023-05-12T08:53:27.895Z,99642.59
2023-05-12T08:59:37.913Z,99649.50
2023-05-12T09:02:52.050Z,99633.72
2023-05-12T09:05:57.603Z,99634.81
2023-05-12T09:09:00.015Z,99629.19
2023-05-12T09:12:03.370Z,99640.06
2023-05-12T09:15:10.540Z,99645.31
2023-05-12T09:18:12.433Z,99645.91
2023-05-12T09:21:14.416Z,99650.75
2023-05-12T09:24:17.112Z,99642.50
2023-05-12T09:35:22.736Z,99646.19
2023-05-12T09:38:24.739Z,99646.63
2023-05-12T09:41:26.652Z,99647.97
2023-05-12T09:44:29.936Z,99643.94
2023-05-12T09:47:37.574Z,99646.91
2023-05-12T09:50:51.442Z,99648.84
2023-05-12T09:53:53.588Z,99642.50
2023-05-12T09:57:02.451Z,99646.78
2023-05-12T10:00:16.956Z,99648.25
2023-05-12T10:03:25.689Z,99644.63
2023-05-12T10:07:12.027Z,99644.06
2023-05-12T10:11:13.646Z,99639.13
2023-05-12T10:15:15.333Z,99646.22
2023-05-12T10:18:37.517Z,99632.50
2023-05-12T10:21:42.863Z,99652.69
2023-05-12T10:24:45.736Z,99642.34
2023-05-12T10:27:49.383Z,99638.31
2023-05-12T10:30:52.960Z,99644.59
2023-05-12T10:34:02.782Z,99644.75
2023-05-12T10:37:09.165Z,99621.69
2023-05-12T10:40:11.391Z,99636.88
2023-05-12T10:43:24.342Z,99646.97
2023-05-12T10:46:27.602Z,99639.56
2023-05-12T10:49:34.827Z,99639.72
2023-05-12T10:52:36.622Z,99641.06
2023-05-12T10:55:46.455Z,99656.34
2023-05-12T10:59:13.583Z,99646.56
2023-05-12T11:02:18.534Z,99651.19
2023-05-12T11:05:21.987Z,99648.19
2023-05-12T11:08:24.951Z,99656.13
2023-05-12T11:11:29.407Z,99651.88
2023-05-12T11:14:32.205Z,99646.66
2023-05-12T11:17:37.722Z,99654.03
2023-05-12T11:20:39.689Z,99645.03
2023-05-12T11:23:41.740Z,99651.47
2023-05-12T11:26:43.666Z,99656.59
2023-05-12T11:29:56.123Z,99653.75
2023-05-12T11:33:02.460Z,99658.19
2023-05-12T11:36:05.587Z,99656.53
2023-05-12T11:39:13.877Z,99660.72
2023-05-12T11:42:17.778Z,99669.25
2023-05-12T11:45:25.992Z,99660.31
2023-05-12T11:48:37.511Z,99669.72
2023-05-12T11:51:43.264Z,99669.28
2023-05-12T11:55:06.782Z,99676.69
2023-05-12T11:58:08.752Z,99669.28
2023-05-12T12:01:13.460Z,99668.34
2023-05-12T12:04:15.751Z,99672.31
2023-05-12T12:07:32.181Z,99669.41
2023-05-12T12:10:34.141Z,99676.66
2023-05-12T12:13:36.123Z,99668.16
2023-05-12T12:16:38.205Z,99671.75
2023-05-12T12:19:40.294Z,99677.03
2023-05-12T12:22:42.236Z,99674.78
2023-05-12T12:25:44.126Z,99673.75
2023-05-12T12:28:47.745Z,99674.97
2023-05-12T12:31:50.905Z,99679.88
2023-05-12T12:34:53.471Z,99683.13
2023-05-12T12:37:55.517Z,99684.25
2023-05-12T12:40:57.390Z,99676.03
2023-05-12T12:43:59.552Z,99680.66
2023-05-12T12:47:01.523Z,99687.50
2023-05-12T12:50:04.034Z,99687.94
2023-05-12T12:53:06.335Z,99674.41
2023-05-12T12:56:08.286Z,99692.09
2023-05-12T12:59:10.416Z,99692.38
2023-05-12T13:02:12.534Z,99682.84
2023-05-12T13:05:14.369Z,99685.75
2023-05-12T13:08:17.628Z,99690.94
2023-05-12T13:11:19.539Z,99684.41
2023-05-12T13:14:21.653Z,99689.47
2023-05-12T13:17:23.574Z,99689.56
2023-05-12T13:20:25.523Z,99687.31
2023-05-12T13:23:27.446Z,99681.94
2023-05-12T13:26:29.324Z,99686.88
2023-05-12T13:29:31.309Z,99682.53
2023-05-12T13:32:34.647Z,99684.84
2023-05-12T13:35:36.563Z,99690.38
2023-05-12T13:38:38.451Z,99686.41
2023-05-12T13:41:40.372Z,99685.16
2023-05-12T13:44:42.478Z,99682.19
2023-05-12T13:47:44.397Z,99692.22
2023-05-12T13:50:46.402Z,99697.38
2023-05-12T13:53:48.246Z,99689.63
2023-05-12T13:56:50.049Z,99690.84
2023-05-12T13:59:52.229Z,99694.19
2023-05-12T14:02:54.378Z,99695.47
2023-05-12T14:05:56.267Z,99699.72
2023-05-12T14:09:06.102Z,99702.84
2023-05-12T14:12:08.630Z,99703.03
2023-05-12T14:15:29.062Z,99698.47
2023-05-12T14:18:33.600Z,99705.69
2023-05-12T14:21:35.910Z,99697.78
2023-05-12T14:24:37.787Z,99699.91
2023-05-12T14:27:39.841Z,99697.31
2023-05-12T14:30:43.376Z,99701.59
2023-05-12T14:33:45.489Z,99702.47
2023-05-12T14:36:47.393Z,99701.06
2023-05-12T14:39:49.211Z,99704.53
2023-05-12T14:42:51.278Z,99710.97
2023-05-12T14:45:54.683Z,99713.44
2023-05-12T14:48:56.852Z,99721.72
2023-05-12T14:51:59.158Z,99717.25
2023-05-12T14:55:01.026Z,99727.28
2023-05-12T14:58:02.881Z,99731.59
2023-05-12T15:01:06.346Z,99733.75
2023-05-12T15:04:09.933Z,99736.03
2023-05-12T15:07:11.895Z,99737.81
2023-05-12T15:43:54.807Z,99724.38
2023-05-12T15:46:57.080Z,99720.59
2023-05-12T15:49:59.140Z,99710.78
2023-05-12T15:53:01.009Z,99716.28
2023-05-12T15:56:04.413Z,99713.81
2023-05-12T15:59:06.885Z,99710.94
2023-05-12T16:02:08.957Z,99721.00
2023-05-12T16:05:12.077Z,99723.28
2023-05-12T16:08:14.342Z,99726.28
2023-05-12T16:11:16.341Z,99725.63
2023-05-12T16:14:18.787Z,99732.00
2023-05-12T16:17:22.267Z,99729.19
2023-05-12T16:20:24.156Z,99727.66
2023-05-12T16:23:26.357Z,99719.94
2023-05-12T16:26:28.209Z,99735.25
2023-05-12T16:29:30.038Z,99731.66
2023-05-12T16:32:32.248Z,99740.47
2023-05-12T16:35:34.490Z,99739.16
2023-05-12T16:38:36.342Z,99743.66
2023-05-12T16:41:38.522Z,99747.94
2023-05-12T16:44:40.383Z,99737.63
2023-05-12T16:47:45.568Z,99744.88
2023-05-12T16:50:47.512Z,99742.25
2023-05-12T16:53:49.448Z,99740.38
2023-05-12T16:56:51.412Z,99745.38
2023-05-12T16:59:53.288Z,99739.75
2023-05-12T17:02:55.359Z,99740.72
2023-05-12T17:05:57.742Z,99746.38
2023-05-12T17:08:59.667Z,99743.88
2023-05-12T17:12:01.623Z,99744.72
2023-05-12T17:15:07.871Z,99748.00
2023-05-12T17:18:10.336Z,99747.06
2023-05-12T17:21:12.366Z,99741.63
2023-05-12T17:24:14.519Z,99747.44
2023-05-12T17:27:16.454Z,99748.41
2023-05-12T17:30:18.710Z,99753.81
2023-05-12T17:33:20.633Z,99757.03
2023-05-12T17:36:22.547Z,99758.91
2023-05-12T17:39:24.443Z,99764.13
2023-05-12T17:42:29.940Z,99764.91
2023-05-12T17:45:31.786Z,99766.00
2023-05-12T17:48:33.736Z,99772.22
2023-05-12T17:51:35.674Z,99772.47
2023-05-12T17:54:37.588Z,99777.03
2023-05-12T17:57:39.507Z,99780.25
2023-05-12T18:00:41.621Z,99775.84
2023-05-12T18:03:43.945Z,99783.06
2023-05-12T18:06:50.111Z,99781.91
2023-05-12T18:09:52.013Z,99783.53
2023-05-12T18:12:55.402Z,99784.22
2023-05-12T18:15:57.464Z,99792.13
2023-05-12T18:18:59.481Z,99784.78
2023-05-12T18:22:01.417Z,99786.22
2023-05-12T18:25:03.410Z,99793.41
2023-05-12T18:28:06.746Z,99790.50
2023-05-12T18:31:16.069Z,99798.66
2023-05-12T18:34:18.346Z,99799.63
2023-05-12T18:37:20.203Z,99799.50
2023-05-12T18:40:22.116Z,99807.59
2023-05-12T18:43:24.015Z,99811.19
2023-05-12T18:46:25.915Z,99811.22
2023-05-12T18:49:27.802Z,99815.84
2023-05-12T18:52:29.699Z,99817.63
2023-05-12T18:55:31.591Z,99816.19
2023-05-12T18:58:33.530Z,99821.94
2023-05-12T19:01:35.595Z,99817.28
2023-05-12T19:04:37.733Z,99818.38
2023-05-12T19:07:39.635Z,99820.97
2023-05-12T19:10:41.595Z,99820.25
2023-05-12T19:13:45.354Z,99818.41
2023-05-12T19:16:47.256Z,99828.47
2023-05-12T19:19:50.675Z,99824.72
2023-05-12T19:22:52.593Z,99822.25
2023-05-12T19:25:54.742Z,99835.63
2023-05-12T19:28:56.588Z,99838.63
2023-05-12T19:31:58.622Z,99839.47
2023-05-12T19:35:01.070Z,99844.03
2023-05-12T19:38:03.019Z,99840.38
2023-05-12T19:41:04.820Z,99845.59
2023-05-12T19:44:06.708Z,99842.75
2023-05-12T19:47:09.549Z,99843.56
2023-05-12T19:50:11.578Z,99841.91
2023-05-12T19:53:13.514Z,99850.94
2023-05-12T19:56:15.459Z,99851.25
2023-05-12T19:59:18.707Z,99852.38
2023-05-12T20:02:20.790Z,99843.56
2023-05-12T20:05:22.898Z,99847.63
2023-05-12T20:08:24.862Z,99840.06
2023-05-12T20:11:27.195Z,99851.00
2023-05-12T20:14:29.083Z,99847.09
2023-05-12T20:17:31.105Z,99845.41
2023-05-12T20:20:32.969Z,99842.19
2023-05-12T20:23:34.863Z,99839.72
2023-05-12T20:26:36.926Z,99841.75
2023-05-12T20:29:38.888Z,99843.84
2023-05-12T20:32:41.050Z,99843.13
2023-05-12T20:35:42.978Z,99844.34
2023-05-12T20:38:45.001Z,99834.75
2023-05-12T20:41:46.892Z,99837.53
2023-05-12T20:44:48.756Z,99845.91
2023-05-12T20:47:50.696Z,99843.38
2023-05-12T20:50:53.086Z,99844.34
2023-05-12T20:53:55.753Z,99845.19
2023-05-12T20:56:57.805Z,99846.88
2023-05-12T20:59:59.603Z,99849.28
2023-05-12T21:03:03.002Z,99841.25
2023-05-12T21:06:05.618Z,99856.97
2023-05-12T21:09:07.508Z,99861.47
2023-05-12T21:12:09.685Z,99866.66
2023-05-12T21:15:11.826Z,99858.91
2023-05-12T21:18:13.935Z,99857.03
2023-05-12T21:21:16.105Z,99861.97
2023-05-12T21:24:17.974Z,99864.16
2023-05-12T21:27:19.819Z,99865.91
2023-05-12T21:30:21.846Z,99872.94
2023-05-12T21:33:23.928Z,99874.91
2023-05-12T21:36:25.781Z,99873.78
2023-05-12T21:39:27.978Z,99871.47
2023-05-12T21:42:30.063Z,99879.78
2023-05-12T21:45:32.778Z,99883.56
2023-05-12T21:48:34.580Z,99884.78
2023-05-12T21:51:36.379Z,99882.91
2023-05-12T21:54:38.599Z,99887.34
2023-05-12T21:57:41.128Z,99880.78
2023-05-12T22:00:43.260Z,99882.09
2023-05-12T22:03:45.314Z,99886.25
2023-05-12T22:06:47.683Z,99887.81
2023-05-12T22:09:49.589Z,99885.28
2023-05-12T22:12:51.615Z,99897.47
2023-05-12T22:15:53.649Z,99897.84
2023-05-12T22:18:55.805Z,99892.81
2023-05-12T22:21:58.279Z,99898.13
2023-05-12T22:25:00.138Z,99889.91
2023-05-12T22:28:02.040Z,99893.44
2023-05-12T22:31:04.019Z,99897.47
2023-05-12T22:34:05.931Z,99888.59
2023-05-12T22:37:07.813Z,99882.91
2023-05-12T22:43:47.895Z,99887.31
2023-05-12T22:46:49.957Z,99885.84
2023-05-12T22:49:51.863Z,99876.69
2023-05-12T22:52:57.473Z,99877.00
2023-05-12T22:55:59.397Z,99871.00
2023-05-12T22:59:01.224Z,99872.38
2023-05-12T23:02:03.073Z,99874.63
2023-05-12T23:05:05.339Z,99865.19
2023-05-12T23:08:07.231Z,99864.25
2023-05-12T23:11:09.724Z,99875.94
2023-05-12T23:14:11.669Z,99867.72
2023-05-12T23:17:13.539Z,99866.88
2023-05-12T23:20:15.526Z,99865.63
2023-05-12T23:23:17.566Z,99869.88
2023-05-12T23:26:19.820Z,99868.81
2023-05-12T23:29:21.719Z,99874.09
2023-05-12T23:32:23.745Z,99862.69
2023-05-12T23:35:26.267Z,99866.63
2023-05-12T23:38:28.220Z,99861.66
2023-05-12T23:41:31.843Z,99858.59
2023-05-12T23:44:42.434Z,99860.97
2023-05-12T23:47:44.526Z,99861.69
2023-05-12T23:50:46.404Z,99860.59
2023-05-12T23:53:48.356Z,99855.44
2023-05-12T23:56:50.158Z,99862.28
2023-05-12T23:59:52.583Z,99852.31
